My Profile
  1. Member Settings
  2. My Devices
  3. Sign Out
        More Settings
      Elev 160 ft, 52.661 °N 7.252 °W

      Newpark Lower, IE

      Summary

      Temperature (°F)MaxAverageMin
      Max Temperature8869.8153
      Avg Temperature72.4662.1553
      Min Temperature6254.7549
      Precipitation (in)MaxAverageMinSum
      Precipitation0000
      Dew Point (°F)MaxAverageMin
      Dew Point61.7553.7346.63
      Wind (mph)MaxAverageMin
      Wind2211.917
      Gust Wind---
      Sea Level Pressure (in)MaxAverageMin
      Sea Level Pressure30.3429.9329.48

      Daily Observations

      DateTemp High/LowDew Pt High/LowHumidityWindMax WindWind GustPressurePrecip.Condition
      7/1/2022 61 °F / 52 °F 58 °F / 47 °F 85 % 16 mph - 29.69 in 0 in
      7/2/2022 67 °F / 50 °F 52 °F / 48 °F 75 % 11 mph - 29.74 in 0 in
      7/3/2022 63 °F / 52 °F 51 °F / 47 °F 72 % 13 mph - 29.93 in 0 in
      7/4/2022 64 °F / 53 °F 53 °F / 47 °F 73 % 13 mph - 29.98 in 0 in
      7/5/2022 67 °F / 55 °F 60 °F / 48 °F 82 % 11 mph - 30.11 in 0 in
      7/6/2022 68 °F / 57 °F 58 °F / 53 °F 80 % 18 mph - 30.19 in 0 in
      7/7/2022 74 °F / 58 °F 60 °F / 55 °F 78 % 9 mph - 30.28 in 0 in
      7/8/2022 71 °F / 54 °F 59 °F / 53 °F 78 % 9 mph - 30.35 in 0 in
      7/9/2022 73 °F / 52 °F 59 °F / 51 °F 80 % 9 mph - 30.31 in 0 in
      7/10/2022 78 °F / 52 °F 61 °F / 51 °F 76 % 9 mph - 30.14 in 0 in
      7/11/2022 78 °F / 52 °F 57 °F / 51 °F 70 % 16 mph - 29.96 in 0 in
      7/12/2022 72 °F / 62 °F 61 °F / 56 °F 81 % 13 mph - 29.93 in 0 in
      7/13/2022 67 °F / 51 °F 55 °F / 47 °F 70 % 9 mph - 30.06 in 0 in
      7/14/2022 70 °F / 50 °F 52 °F / 47 °F 70 % 11 mph - 30.09 in 0 in
      7/15/2022 73 °F / 54 °F 56 °F / 51 °F 72 % 11 mph - 30.05 in 0 in
      7/16/2022 78 °F / 51 °F 59 °F / 50 °F 74 % 11 mph - 30.04 in 0 in
      7/17/2022 79 °F / 56 °F 61 °F / 54 °F 69 % 13 mph - 29.94 in 0 in
      7/18/2022 88 °F / 58 °F 62 °F / 55 °F 63 % 13 mph - 29.78 in 0 in
      7/19/2022 81 °F / 58 °F 64 °F / 52 °F 74 % 11 mph - 29.63 in 0 in
      7/20/2022 60 °F / 57 °F 53 °F / 49 °F 78 % 13 mph - 29.79 in 0 in
      7/21/2022 64 °F / 56 °F 51 °F / 46 °F 66 % 7 mph - 30.04 in 0 in
      7/22/2022 71 °F / 55 °F 53 °F / 48 °F 67 % 11 mph - 29.91 in 0 in
      7/23/2022 69 °F / 60 °F 65 °F / 56 °F 90 % 16 mph - 29.66 in 0 in
      7/24/2022 73 °F / 60 °F 60 °F / 57 °F 81 % 22 mph - 29.48 in 0 in
      7/25/2022 66 °F / 55 °F 57 °F / 47 °F 74 % 18 mph - 29.68 in 0 in
      7/26/2022 64 °F / 52 °F 49 °F / 42 °F 67 % 7 mph - 29.98 in 0 in
      7/27/2022 63 °F / 51 °F 49 °F / 44 °F 71 % 7 mph - 29.91 in 0 in
      7/28/2022 69 °F / 49 °F 53 °F / 46 °F 69 % 9 mph - 29.8 in 0 in
      7/29/2022 70 °F / 58 °F 59 °F / 53 °F 75 % 16 mph - 29.83 in 0 in
      7/30/2022 70 °F / 62 °F 66 °F / 58 °F 89 % 13 mph - 29.77 in 0 in
      7/31/2022 71 °F / 59 °F 63 °F / 50 °F 81 % 9 mph - 29.82 in 0 in
      essentialaccessibility.com
      We recognize our responsibility to use data and technology for good. We may use or share your data with our data vendors. Take control of your data.
      Glossary